createdAt,value
2019-05-21T00:00:57.818Z,96.90
2019-05-21T00:03:26.320Z,96.90
2019-05-21T00:05:54.846Z,96.90
2019-05-21T00:08:23.314Z,97.10
2019-05-21T00:10:51.819Z,97.00
2019-05-21T00:13:20.351Z,97.10
2019-05-21T00:15:48.809Z,97.10
2019-05-21T00:18:17.314Z,97.00
2019-05-21T00:20:45.780Z,97.10
2019-05-21T00:23:14.240Z,97.10
2019-05-21T00:25:42.744Z,97.00
2019-05-21T00:28:32.081Z,97.20
2019-05-21T00:31:36.820Z,97.10
2019-05-21T00:34:43.915Z,97.20
2019-05-21T00:37:48.593Z,97.10
2019-05-21T00:40:53.779Z,97.30
2019-05-21T00:43:30.962Z,97.20
2019-05-21T00:45:59.432Z,97.20
2019-05-21T00:48:27.886Z,97.10
2019-05-21T00:50:56.388Z,97.10
2019-05-21T00:53:24.923Z,97.20
2019-05-21T00:55:53.389Z,97.20
2019-05-21T00:58:21.877Z,97.10
2019-05-21T01:00:50.350Z,97.20
2019-05-21T01:03:18.809Z,97.20
2019-05-21T01:05:47.323Z,97.00
2019-05-21T01:08:15.791Z,97.00
2019-05-21T01:10:44.248Z,97.00
2019-05-21T01:13:12.773Z,97.20
2019-05-21T01:15:41.233Z,97.20
2019-05-21T01:18:09.762Z,97.10
2019-05-21T01:20:38.264Z,97.10
2019-05-21T01:23:06.734Z,97.50
2019-05-21T01:25:35.187Z,97.30
2019-05-21T01:28:03.685Z,97.10
2019-05-21T01:30:32.151Z,97.00
2019-05-21T01:33:00.622Z,97.20
2019-05-21T01:35:29.129Z,97.30
2019-05-21T01:37:57.587Z,97.40
2019-05-21T01:40:26.050Z,97.40
2019-05-21T01:42:54.552Z,97.20
2019-05-21T01:45:23.013Z,97.30
2019-05-21T01:47:51.472Z,97.10
2019-05-21T01:50:20.008Z,97.40
2019-05-21T01:52:48.532Z,97.40
2019-05-21T01:55:17.005Z,97.30
2019-05-21T01:57:45.491Z,97.20
2019-05-21T02:00:14.201Z,97.20
2019-05-21T02:02:42.740Z,97.10
2019-05-21T02:05:11.390Z,97.20
2019-05-21T02:07:39.841Z,97.30
2019-05-21T02:10:08.750Z,97.20
2019-05-21T02:12:37.252Z,97.30
2019-05-21T02:15:07.108Z,97.20
2019-05-21T02:17:35.572Z,97.30
2019-05-21T02:20:05.716Z,97.40
2019-05-21T02:22:34.186Z,97.40
2019-05-21T02:25:02.790Z,97.40
2019-05-21T02:27:31.291Z,97.70
2019-05-21T02:29:59.761Z,97.50
2019-05-21T02:32:28.226Z,97.40
2019-05-21T02:34:56.724Z,97.70
2019-05-21T02:37:25.183Z,97.60
2019-05-21T02:39:53.643Z,97.50
2019-05-21T02:42:22.151Z,97.60
2019-05-21T02:44:53.889Z,97.60
2019-05-21T02:47:21.034Z,97.50
2019-05-21T02:49:49.613Z,97.80
2019-05-21T02:52:18.079Z,97.70
2019-05-21T02:54:46.576Z,97.80
2019-05-21T02:57:15.143Z,97.80
2019-05-21T02:59:45.253Z,97.70
2019-05-21T03:02:33.429Z,97.70
2019-05-21T03:05:01.894Z,97.60
2019-05-21T03:07:30.526Z,97.80
2019-05-21T03:09:59.014Z,97.70
2019-05-21T03:12:27.540Z,97.70
2019-05-21T03:14:56.015Z,97.60
2019-05-21T03:17:24.605Z,97.80
2019-05-21T03:19:53.128Z,97.90
2019-05-21T03:22:21.584Z,97.80
2019-05-21T03:24:50.151Z,97.80
2019-05-21T03:27:18.617Z,97.80
2019-05-21T03:29:47.349Z,97.90
2019-05-21T03:32:15.850Z,97.70
2019-05-21T03:34:44.313Z,97.80
2019-05-21T03:37:12.860Z,97.90
2019-05-21T03:39:41.425Z,97.90
2019-05-21T03:42:09.905Z,98.20
2019-05-21T03:44:56.319Z,98.10
2019-05-21T03:47:09.474Z,98.40
2019-05-21T03:49:37.960Z,98.20
2019-05-21T03:52:06.481Z,98.20
2019-05-21T03:54:35.216Z,98.30
2019-05-21T03:57:03.933Z,98.30
2019-05-21T03:59:32.461Z,98.20
2019-05-21T04:02:01.024Z,97.90
2019-05-21T04:04:29.490Z,97.70
2019-05-21T04:06:57.951Z,97.60
2019-05-21T04:09:26.452Z,97.50
2019-05-21T04:11:54.907Z,97.40
2019-05-21T04:14:31.296Z,97.00
2019-05-21T04:17:02.323Z,96.90
2019-05-21T04:19:35.489Z,96.90
2019-05-21T04:22:05.564Z,96.50
2019-05-21T04:24:34.018Z,96.70
2019-05-21T04:27:02.518Z,96.70
2019-05-21T04:29:30.996Z,96.40
2019-05-21T04:31:59.462Z,95.90
2019-05-21T04:34:28.013Z,95.80
2019-05-21T04:37:09.863Z,95.80
2019-05-21T04:39:26.781Z,95.60
2019-05-21T04:41:55.364Z,95.70
2019-05-21T04:44:23.827Z,95.80
2019-05-21T04:46:52.280Z,95.70
2019-05-21T04:49:20.793Z,95.30
2019-05-21T04:51:49.479Z,95.50
2019-05-21T04:54:17.959Z,95.20
2019-05-21T04:56:46.591Z,95.00
2019-05-21T04:59:15.046Z,95.10
2019-05-21T05:01:43.505Z,95.00
2019-05-21T05:04:12.012Z,94.90
2019-05-21T05:06:40.472Z,94.90
2019-05-21T05:09:08.945Z,94.90
2019-05-21T05:11:37.702Z,95.00
2019-05-21T05:14:06.232Z,94.70
2019-05-21T05:16:34.700Z,94.70
2019-05-21T05:19:03.207Z,94.40
2019-05-21T05:21:31.664Z,94.80
2019-05-21T05:24:00.133Z,94.60
2019-05-21T05:26:28.636Z,94.70
2019-05-21T05:28:57.117Z,94.30
2019-05-21T05:31:25.587Z,94.50
2019-05-21T05:33:54.167Z,94.20
2019-05-21T05:36:22.621Z,94.50
2019-05-21T05:38:51.155Z,94.00
2019-05-21T05:41:19.666Z,94.10
2019-05-21T05:43:48.139Z,94.40
2019-05-21T05:46:16.608Z,93.60
2019-05-21T05:48:46.825Z,93.60
2019-05-21T05:51:15.319Z,93.40
2019-05-21T05:53:59.184Z,93.70
2019-05-21T05:56:28.993Z,93.60
2019-05-21T05:58:57.598Z,93.70
2019-05-21T06:01:27.237Z,93.30
2019-05-21T06:03:55.764Z,93.60
2019-05-21T06:06:24.231Z,93.10
2019-05-21T06:08:52.735Z,93.20
2019-05-21T06:11:21.200Z,92.90
2019-05-21T06:13:49.650Z,93.00
2019-05-21T06:16:18.159Z,93.20
2019-05-21T06:18:46.767Z,93.30
2019-05-21T06:21:15.225Z,92.90
2019-05-21T06:23:44.039Z,93.20
2019-05-21T06:26:12.500Z,92.70
2019-05-21T06:28:41.033Z,93.10
2019-05-21T06:31:09.612Z,92.50
2019-05-21T06:33:38.088Z,93.60
2019-05-21T06:36:06.698Z,92.60
2019-05-21T06:38:35.189Z,92.70
2019-05-21T06:41:03.818Z,92.40
2019-05-21T06:43:32.333Z,92.40
2019-05-21T06:46:00.837Z,92.50
2019-05-21T06:48:29.309Z,92.40
2019-05-21T06:50:57.794Z,92.40
2019-05-21T06:53:26.383Z,92.70
2019-05-21T06:55:54.860Z,92.50
2019-05-21T06:58:23.471Z,92.20
2019-05-21T07:00:51.985Z,92.70
2019-05-21T07:03:20.520Z,92.80
2019-05-21T07:05:58.488Z,92.20
2019-05-21T07:08:33.674Z,92.60
2019-05-21T07:10:49.633Z,92.00
2019-05-21T07:13:18.150Z,92.00
2019-05-21T07:15:46.649Z,92.50
2019-05-21T07:18:15.122Z,92.10
2019-05-21T07:20:43.589Z,92.40
2019-05-21T07:23:12.180Z,91.80
2019-05-21T07:25:40.654Z,92.10
2019-05-21T07:28:09.110Z,91.90
2019-05-21T07:30:37.704Z,91.80
2019-05-21T07:33:06.897Z,91.60
2019-05-21T07:35:35.703Z,92.00
2019-05-21T07:38:04.285Z,92.00
2019-05-21T07:40:32.740Z,91.80
2019-05-21T07:43:01.210Z,91.90
2019-05-21T07:45:29.785Z,91.90
2019-05-21T07:47:58.251Z,92.00
2019-05-21T07:50:26.846Z,91.40
2019-05-21T07:52:55.365Z,92.10
2019-05-21T07:55:23.892Z,92.00
2019-05-21T07:57:52.352Z,91.70
2019-05-21T08:00:21.294Z,91.80
2019-05-21T08:02:49.756Z,91.60
2019-05-21T08:05:18.225Z,92.80
2019-05-21T08:07:46.785Z,92.20
2019-05-21T08:10:16.090Z,91.80
2019-05-21T08:12:44.562Z,91.70
2019-05-21T08:15:13.487Z,91.80
2019-05-21T08:17:42.012Z,91.40
2019-05-21T08:20:11.630Z,91.90
2019-05-21T08:22:40.185Z,91.10
2019-05-21T08:25:09.063Z,91.10
2019-05-21T08:27:37.604Z,91.20
2019-05-21T08:30:06.902Z,91.10
2019-05-21T08:32:35.356Z,91.00
2019-05-21T08:35:05.754Z,90.40
2019-05-21T08:37:34.327Z,90.10
2019-05-21T08:40:03.226Z,91.10
2019-05-21T08:42:31.692Z,89.90
2019-05-21T08:45:00.243Z,89.70
2019-05-21T08:47:28.720Z,90.20
2019-05-21T08:49:57.186Z,89.20
2019-05-21T08:52:25.677Z,90.40
2019-05-21T08:54:56.458Z,89.60
2019-05-21T08:57:24.333Z,88.20
2019-05-21T08:59:52.825Z,88.90
2019-05-21T09:02:21.369Z,86.90
2019-05-21T09:04:49.931Z,88.80
2019-05-21T09:07:18.769Z,88.70
2019-05-21T09:09:50.642Z,86.30
2019-05-21T09:12:17.557Z,88.00
2019-05-21T09:14:46.083Z,87.40
2019-05-21T09:17:14.684Z,87.10
2019-05-21T09:19:43.158Z,86.20
2019-05-21T09:22:11.737Z,86.50
2019-05-21T09:24:40.190Z,87.50
2019-05-21T09:27:08.668Z,85.90
2019-05-21T09:29:37.244Z,85.00
2019-05-21T09:32:05.708Z,85.70
2019-05-21T09:34:48.109Z,85.30
2019-05-21T09:37:18.523Z,85.90
2019-05-21T09:39:34.791Z,85.60
2019-05-21T09:42:03.422Z,84.90
2019-05-21T09:44:31.983Z,85.30
2019-05-21T09:47:00.463Z,86.10
2019-05-21T09:49:29.052Z,86.60
2019-05-21T09:51:57.551Z,84.90
2019-05-21T09:54:26.090Z,84.70
2019-05-21T09:56:54.557Z,85.40
2019-05-21T09:59:24.692Z,85.40
2019-05-21T10:01:57.583Z,82.50
2019-05-21T10:04:26.140Z,81.20
2019-05-21T10:06:54.733Z,82.30
2019-05-21T10:09:23.260Z,82.10
2019-05-21T10:11:51.724Z,83.50
2019-05-21T10:14:20.236Z,83.10
2019-05-21T10:16:48.774Z,83.30
2019-05-21T10:19:17.244Z,82.00
2019-05-21T10:21:45.767Z,80.80
2019-05-21T10:24:14.227Z,80.50
2019-05-21T10:26:42.851Z,80.70
2019-05-21T10:29:11.349Z,80.60
2019-05-21T10:31:39.970Z,81.00
2019-05-21T10:34:08.490Z,82.80
2019-05-21T10:36:36.991Z,78.00
2019-05-21T10:39:07.191Z,80.30
2019-05-21T10:41:35.648Z,78.50
2019-05-21T10:44:04.786Z,79.40
2019-05-21T10:46:33.323Z,77.90
2019-05-21T10:49:01.863Z,78.50
2019-05-21T10:51:30.383Z,80.60
2019-05-21T10:53:58.963Z,81.20
2019-05-21T10:56:27.477Z,80.90
2019-05-21T10:58:55.973Z,79.40
2019-05-21T11:01:29.375Z,80.10
2019-05-21T11:04:08.744Z,81.10
2019-05-21T11:06:37.555Z,79.00
2019-05-21T11:09:09.595Z,79.10
2019-05-21T11:11:38.243Z,79.90
2019-05-21T11:14:06.882Z,80.40
2019-05-21T11:16:35.567Z,77.50
2019-05-21T11:19:04.171Z,78.70
2019-05-21T11:21:32.643Z,79.20
2019-05-21T11:24:01.273Z,80.30
2019-05-21T11:26:29.925Z,76.80
2019-05-21T11:28:58.389Z,78.10
2019-05-21T11:31:26.854Z,77.20
2019-05-21T11:33:55.525Z,75.00
2019-05-21T11:36:24.058Z,76.00
2019-05-21T11:38:52.521Z,75.30
2019-05-21T11:41:21.024Z,73.70
2019-05-21T11:43:49.645Z,72.50
2019-05-21T11:46:18.087Z,73.50
2019-05-21T11:48:46.607Z,72.10
2019-05-21T11:51:15.115Z,74.60
2019-05-21T11:53:43.603Z,74.20
2019-05-21T11:56:13.685Z,71.60
2019-05-21T11:58:42.222Z,71.80
2019-05-21T12:01:10.744Z,72.80
2019-05-21T12:03:39.222Z,72.20
2019-05-21T12:06:07.691Z,69.50
2019-05-21T12:08:36.250Z,71.20
2019-05-21T12:11:05.032Z,70.70
2019-05-21T12:13:33.547Z,71.00
2019-05-21T12:16:02.172Z,70.10
2019-05-21T12:18:30.669Z,69.60
2019-05-21T12:20:59.127Z,69.60
2019-05-21T12:23:27.634Z,70.00
2019-05-21T12:25:56.174Z,68.50
2019-05-21T12:28:24.727Z,69.70
2019-05-21T12:30:53.249Z,71.10
2019-05-21T12:33:21.740Z,69.10
2019-05-21T12:35:50.271Z,67.50
2019-05-21T12:38:18.730Z,68.20
2019-05-21T12:40:48.010Z,67.10
2019-05-21T12:43:16.471Z,68.70
2019-05-21T12:45:44.994Z,69.20
2019-05-21T12:48:13.498Z,65.50
2019-05-21T12:50:41.971Z,68.30
2019-05-21T12:53:10.504Z,67.90
2019-05-21T12:55:39.067Z,69.70
2019-05-21T12:58:07.528Z,65.20
2019-05-21T13:00:36.629Z,67.40
2019-05-21T13:03:05.259Z,65.70
2019-05-21T13:05:33.875Z,66.70
2019-05-21T13:08:02.422Z,64.70
2019-05-21T13:10:31.024Z,68.80
2019-05-21T13:12:59.523Z,63.10
2019-05-21T13:15:27.985Z,65.40
2019-05-21T13:17:56.477Z,63.80
2019-05-21T13:20:25.106Z,66.90
2019-05-21T13:22:53.651Z,65.90
2019-05-21T13:25:22.282Z,65.30
2019-05-21T13:27:50.744Z,64.90
2019-05-21T13:30:19.613Z,64.30
2019-05-21T13:32:48.175Z,64.60
2019-05-21T13:35:16.702Z,67.70
2019-05-21T13:37:45.153Z,66.70
2019-05-21T13:40:14.189Z,66.70
2019-05-21T13:42:42.648Z,65.30
2019-05-21T13:45:11.508Z,66.30
2019-05-21T13:47:40.074Z,66.60
2019-05-21T13:50:08.938Z,66.10
2019-05-21T13:52:37.393Z,66.30
2019-05-21T13:55:09.202Z,64.60
2019-05-21T13:57:37.733Z,66.20
2019-05-21T14:00:10.070Z,65.90
2019-05-21T14:02:39.103Z,67.50
2019-05-21T14:05:07.907Z,66.60
2019-05-21T14:07:36.484Z,67.10
2019-05-21T14:10:19.170Z,67.70
2019-05-21T14:12:37.159Z,67.50
2019-05-21T14:15:06.646Z,67.60
2019-05-21T14:17:35.155Z,67.70
2019-05-21T14:20:08.047Z,67.70
2019-05-21T14:22:36.781Z,69.80
2019-05-21T14:25:08.605Z,70.00
2019-05-21T14:27:44.241Z,66.30
2019-05-21T14:30:09.363Z,67.50
2019-05-21T14:32:38.105Z,67.20
2019-05-21T14:35:07.099Z,69.60
2019-05-21T14:37:35.694Z,69.60
2019-05-21T14:40:08.294Z,71.10
2019-05-21T14:42:36.752Z,69.40
2019-05-21T14:45:08.525Z,68.50
2019-05-21T14:47:37.092Z,69.70
2019-05-21T14:50:08.236Z,69.70
2019-05-21T14:52:36.768Z,67.80
2019-05-21T14:55:07.163Z,69.40
2019-05-21T14:57:35.611Z,70.30
2019-05-21T15:00:19.294Z,68.90
2019-05-21T15:02:48.470Z,65.80
2019-05-21T15:05:16.968Z,67.80
2019-05-21T15:07:49.498Z,68.20
2019-05-21T15:10:16.151Z,68.40
2019-05-21T15:12:44.662Z,68.20
2019-05-21T15:15:14.061Z,69.80
2019-05-21T15:17:42.917Z,69.10
2019-05-21T15:20:17.605Z,67.80
2019-05-21T15:22:46.207Z,69.60
2019-05-21T15:25:14.697Z,69.20
2019-05-21T15:27:43.147Z,69.20
2019-05-21T15:30:12.200Z,69.20
2019-05-21T15:32:40.647Z,69.10
2019-05-21T15:35:09.254Z,69.90
2019-05-21T15:37:37.749Z,68.50
2019-05-21T15:40:07.546Z,70.20
2019-05-21T15:42:36.009Z,70.70
2019-05-21T15:45:05.651Z,70.50
2019-05-21T15:47:34.183Z,72.40
2019-05-21T15:50:02.642Z,71.60
2019-05-21T15:52:31.135Z,71.10
2019-05-21T15:54:59.653Z,72.60
2019-05-21T15:57:28.099Z,71.50
2019-05-21T15:59:56.621Z,71.10
2019-05-21T16:02:25.085Z,71.30
2019-05-21T16:04:53.564Z,72.00
2019-05-21T16:07:22.055Z,71.20
2019-05-21T16:09:50.516Z,71.20
2019-05-21T16:12:19.043Z,71.60
2019-05-21T16:14:47.518Z,72.30
2019-05-21T16:17:15.976Z,71.50
2019-05-21T16:19:44.430Z,72.20
2019-05-21T16:22:12.925Z,72.80
2019-05-21T16:24:41.372Z,71.70
2019-05-21T16:27:09.820Z,72.40
2019-05-21T16:29:38.317Z,72.20
2019-05-21T16:32:06.937Z,72.80
2019-05-21T16:34:35.389Z,74.20
2019-05-21T16:37:03.902Z,73.30
2019-05-21T16:39:33.067Z,72.90
2019-05-21T16:42:01.800Z,73.20
2019-05-21T16:44:30.282Z,73.70
2019-05-21T16:46:58.761Z,73.50
2019-05-21T16:49:27.387Z,74.20
2019-05-21T16:51:55.875Z,75.30
2019-05-21T16:54:24.331Z,74.90
2019-05-21T16:56:52.854Z,75.30
2019-05-21T16:59:21.414Z,75.70
2019-05-21T17:01:49.874Z,75.60
2019-05-21T17:04:18.326Z,76.70
2019-05-21T17:06:46.909Z,77.50
2019-05-21T17:09:15.431Z,76.40
2019-05-21T17:11:57.639Z,77.30
2019-05-21T17:14:14.171Z,76.80
2019-05-21T17:16:42.628Z,76.90
2019-05-21T17:19:11.091Z,76.80
2019-05-21T17:21:39.570Z,77.10
2019-05-21T17:24:08.094Z,77.30
2019-05-21T17:26:36.614Z,77.20
2019-05-21T17:29:05.330Z,77.30
2019-05-21T17:31:33.801Z,78.50
2019-05-21T17:34:02.337Z,78.70
2019-05-21T17:36:30.903Z,79.20
2019-05-21T17:38:59.523Z,80.30
2019-05-21T17:41:27.987Z,79.50
2019-05-21T17:43:56.565Z,79.70
2019-05-21T17:46:25.192Z,79.50
2019-05-21T17:48:53.708Z,80.00
2019-05-21T17:51:22.192Z,80.30
2019-05-21T17:53:50.657Z,80.60
2019-05-21T17:56:19.110Z,81.30
2019-05-21T17:58:47.681Z,80.60
2019-05-21T18:01:17.278Z,81.10
2019-05-21T18:03:46.247Z,82.10
2019-05-21T18:06:16.255Z,82.00
2019-05-21T18:08:44.900Z,82.50
2019-05-21T18:11:15.275Z,82.40
2019-05-21T18:13:47.503Z,82.40
2019-05-21T18:16:15.116Z,83.00
2019-05-21T18:18:44.812Z,83.20
2019-05-21T18:21:13.489Z,83.10
2019-05-21T18:23:42.077Z,83.20
2019-05-21T18:26:10.811Z,83.40
2019-05-21T18:28:39.375Z,83.90
2019-05-21T18:31:07.837Z,84.50
2019-05-21T18:33:36.279Z,84.10
2019-05-21T18:36:04.795Z,84.30
2019-05-21T18:38:33.709Z,84.70
2019-05-21T18:41:02.249Z,84.60
2019-05-21T18:43:30.755Z,85.20
2019-05-21T18:45:59.362Z,85.60
2019-05-21T18:48:27.826Z,85.20
2019-05-21T18:50:56.396Z,85.30
2019-05-21T18:53:24.857Z,85.40
2019-05-21T18:55:53.315Z,85.50
2019-05-21T18:58:21.803Z,86.40
2019-05-21T19:00:50.331Z,85.80
2019-05-21T19:03:25.113Z,86.30
2019-05-21T19:05:49.051Z,86.40
2019-05-21T19:08:17.518Z,86.30
2019-05-21T19:10:45.980Z,86.60
2019-05-21T19:13:33.896Z,86.70
2019-05-21T19:16:02.441Z,86.40
2019-05-21T19:18:31.048Z,87.30
2019-05-21T19:20:59.561Z,87.20
2019-05-21T19:23:28.293Z,87.10
2019-05-21T19:25:56.750Z,86.70
2019-05-21T19:28:25.322Z,86.40
2019-05-21T19:31:13.203Z,87.10
2019-05-21T19:33:41.692Z,87.70
2019-05-21T19:36:10.162Z,87.60
2019-05-21T19:38:38.621Z,87.10
2019-05-21T19:41:08.306Z,87.50
2019-05-21T19:43:56.194Z,87.70
2019-05-21T19:46:24.693Z,88.30
2019-05-21T19:48:53.163Z,88.00
2019-05-21T19:51:21.627Z,88.40
2019-05-21T19:53:50.148Z,88.40
2019-05-21T19:56:18.689Z,88.50
2019-05-21T19:58:47.215Z,88.20
2019-05-21T20:01:15.885Z,88.40
2019-05-21T20:03:44.430Z,88.90
2019-05-21T20:06:15.338Z,88.50
2019-05-21T20:08:44.512Z,88.40
2019-05-21T20:11:14.489Z,88.90
2019-05-21T20:13:43.118Z,89.30
2019-05-21T20:16:11.642Z,89.10
2019-05-21T20:18:40.835Z,89.40
2019-05-21T20:21:09.475Z,89.50
2019-05-21T20:23:38.427Z,89.60
2019-05-21T20:26:10.560Z,89.60
2019-05-21T20:28:39.461Z,89.60
2019-05-21T20:31:07.954Z,89.70
2019-05-21T20:33:38.087Z,89.70
2019-05-21T20:36:08.157Z,89.60
2019-05-21T20:38:37.785Z,89.80
2019-05-21T20:41:06.489Z,89.80
2019-05-21T20:43:35.213Z,90.10
2019-05-21T20:46:04.254Z,90.00
2019-05-21T20:48:35.496Z,89.90
2019-05-21T20:51:04.254Z,90.10
2019-05-21T20:53:33.725Z,90.10
2019-05-21T20:56:02.323Z,90.30
2019-05-21T20:58:31.468Z,90.20
2019-05-21T21:01:01.123Z,90.30
2019-05-21T21:03:30.495Z,90.40
2019-05-21T21:05:59.022Z,90.40
2019-05-21T21:08:28.197Z,90.50
2019-05-21T21:10:56.813Z,90.60
2019-05-21T21:13:25.913Z,90.70
2019-05-21T21:15:54.972Z,90.80
2019-05-21T21:18:24.167Z,90.90
2019-05-21T21:20:52.880Z,90.80
2019-05-21T21:23:22.747Z,91.20
2019-05-21T21:25:51.266Z,91.20
2019-05-21T21:28:19.736Z,91.40
2019-05-21T21:30:48.836Z,91.40
2019-05-21T21:33:17.470Z,91.40
2019-05-21T21:35:46.210Z,91.40
2019-05-21T21:38:15.040Z,91.50
2019-05-21T21:40:43.673Z,91.50
2019-05-21T21:43:13.006Z,91.60
2019-05-21T21:45:42.421Z,91.70
2019-05-21T21:48:11.527Z,91.70
2019-05-21T21:50:41.905Z,91.80
2019-05-21T21:53:10.845Z,91.80
2019-05-21T21:55:39.310Z,91.80
2019-05-21T21:58:08.037Z,91.70
2019-05-21T22:01:03.808Z,91.80
2019-05-21T22:03:34.751Z,91.90
2019-05-21T22:06:06.656Z,91.90
2019-05-21T22:08:35.325Z,91.90
2019-05-21T22:11:04.988Z,91.90
2019-05-21T22:13:33.889Z,91.80
2019-05-21T22:16:02.686Z,91.90
2019-05-21T22:18:31.812Z,91.80
2019-05-21T22:21:01.955Z,91.80
2019-05-21T22:23:31.001Z,91.50
2019-05-21T22:25:59.593Z,92.00
2019-05-21T22:28:28.396Z,91.60
2019-05-21T22:30:57.144Z,91.70
2019-05-21T22:33:25.948Z,91.50
2019-05-21T22:35:54.484Z,91.90
2019-05-21T22:38:23.527Z,91.80
2019-05-21T22:40:52.153Z,91.70
2019-05-21T22:43:20.612Z,91.80
2019-05-21T22:45:49.192Z,91.90
2019-05-21T22:48:17.720Z,92.10
2019-05-21T22:50:46.191Z,91.80
2019-05-21T22:53:14.845Z,91.90
2019-05-21T22:55:43.306Z,91.90
2019-05-21T22:58:11.860Z,91.90
2019-05-21T23:00:41.909Z,91.80
2019-05-21T23:03:10.543Z,92.10
2019-05-21T23:05:39.269Z,92.00
2019-05-21T23:08:08.095Z,92.10
2019-05-21T23:10:37.174Z,92.10
2019-05-21T23:13:05.768Z,91.90
2019-05-21T23:15:34.604Z,91.80
2019-05-21T23:18:03.515Z,91.80
2019-05-21T23:20:33.999Z,91.70
2019-05-21T23:23:03.722Z,91.70
2019-05-21T23:25:32.515Z,91.80
2019-05-21T23:28:01.146Z,91.80
2019-05-21T23:30:29.950Z,91.80
2019-05-21T23:32:58.956Z,91.60
2019-05-21T23:35:28.524Z,91.70
2019-05-21T23:37:57.281Z,91.80
2019-05-21T23:40:26.117Z,91.90
2019-05-21T23:42:55.025Z,91.80
2019-05-21T23:45:23.579Z,91.80
2019-05-21T23:47:52.848Z,91.70
2019-05-21T23:50:22.114Z,91.50
2019-05-21T23:52:52.682Z,91.70
2019-05-21T23:55:21.209Z,91.70
2019-05-21T23:57:49.749Z,91.70
